createdAt,value
2023-05-17T00:00:58.011Z,2.03
2023-05-17T00:03:25.937Z,2.40
2023-05-17T00:05:53.813Z,1.87
2023-05-17T00:08:21.639Z,2.23
2023-05-17T00:10:49.541Z,1.80
2023-05-17T00:13:17.432Z,2.17
2023-05-17T00:18:35.221Z,2.17
2023-05-17T00:21:03.165Z,2.40
2023-05-17T00:23:30.875Z,2.20
2023-05-17T00:25:59.119Z,1.90
2023-05-17T00:28:26.976Z,1.90
2023-05-17T00:30:57.760Z,2.23
2023-05-17T00:33:26.999Z,2.60
2023-05-17T00:35:56.367Z,3.00
2023-05-17T00:38:24.152Z,2.80
2023-05-17T00:40:55.424Z,2.93
2023-05-17T00:43:23.445Z,2.80
2023-05-17T00:45:57.993Z,3.00
2023-05-17T00:48:26.431Z,2.67
2023-05-17T00:50:55.910Z,2.93
2023-05-17T00:53:23.825Z,2.90
2023-05-17T00:55:51.900Z,2.80
2023-05-17T00:58:19.917Z,2.63
2023-05-17T01:00:48.391Z,2.77
2023-05-17T01:03:16.426Z,2.87
2023-05-17T01:05:44.328Z,3.73
2023-05-17T01:08:13.661Z,3.27
2023-05-17T01:10:45.376Z,3.10
2023-05-17T01:13:16.793Z,3.17
2023-05-17T01:15:46.436Z,4.13
2023-05-17T01:18:19.530Z,3.50
2023-05-17T01:20:47.706Z,3.60
2023-05-17T01:23:25.543Z,3.57
2023-05-17T01:25:56.770Z,3.30
2023-05-17T01:28:26.043Z,3.20
2023-05-17T01:30:53.820Z,3.83
2023-05-17T01:33:22.289Z,3.97
2023-05-17T01:35:50.025Z,3.57
2023-05-17T01:38:17.812Z,3.90
2023-05-17T01:40:48.991Z,3.70
2023-05-17T01:43:19.253Z,4.30
2023-05-17T01:45:54.440Z,4.07
2023-05-17T01:48:24.870Z,3.67
2023-05-17T01:50:53.655Z,3.90
2023-05-17T01:53:22.688Z,4.17
2023-05-17T01:55:51.684Z,4.10
2023-05-17T01:58:21.443Z,3.83
2023-05-17T02:00:50.771Z,4.30
2023-05-17T02:03:18.701Z,4.40
2023-05-17T02:05:46.587Z,4.90
2023-05-17T02:08:14.371Z,4.80
2023-05-17T02:10:42.483Z,4.73
2023-05-17T02:13:10.527Z,4.40
2023-05-17T02:15:38.324Z,4.93
2023-05-17T02:18:07.729Z,4.97
2023-05-17T02:20:35.898Z,5.20
2023-05-17T02:23:03.626Z,5.07
2023-05-17T02:25:31.535Z,5.33
2023-05-17T02:27:59.452Z,4.50
2023-05-17T02:30:27.265Z,4.90
2023-05-17T02:32:57.018Z,5.60
2023-05-17T02:35:27.127Z,5.17
2023-05-17T02:37:55.283Z,5.00
2023-05-17T02:40:23.448Z,4.77
2023-05-17T02:42:51.770Z,5.10
2023-05-17T02:45:19.975Z,5.13
2023-05-17T02:47:47.987Z,5.10
2023-05-17T02:50:20.707Z,5.03
2023-05-17T02:52:50.280Z,5.07
2023-05-17T02:55:18.536Z,6.23
2023-05-17T02:57:46.533Z,6.03
2023-05-17T03:00:16.720Z,5.83
2023-05-17T03:02:44.726Z,5.00
2023-05-17T03:05:13.680Z,5.60
2023-05-17T03:10:24.867Z,5.23
2023-05-17T03:13:11.677Z,6.67
2023-05-17T03:16:15.857Z,5.27
2023-05-17T03:19:08.176Z,5.67
2023-05-17T03:21:50.249Z,5.70
2023-05-17T03:24:49.184Z,6.03
2023-05-17T03:27:41.124Z,5.87
2023-05-17T03:30:35.454Z,5.70
2023-05-17T03:33:31.138Z,6.60
2023-05-17T03:36:12.203Z,5.77
2023-05-17T03:38:58.848Z,6.63
2023-05-17T03:42:08.241Z,7.70
2023-05-17T03:47:48.131Z,9.03
2023-05-17T03:50:22.574Z,8.93
2023-05-17T03:52:52.209Z,9.97
2023-05-17T03:55:25.273Z,10.13
2023-05-17T03:58:00.657Z,11.97
2023-05-17T04:00:47.799Z,10.63
2023-05-17T04:03:28.931Z,11.57
2023-05-17T04:06:07.148Z,11.23
2023-05-17T04:08:41.027Z,11.97
2023-05-17T04:11:28.992Z,12.17
2023-05-17T04:14:17.729Z,12.87
2023-05-17T04:16:56.853Z,15.03
2023-05-17T04:19:36.321Z,13.70
2023-05-17T04:22:14.103Z,14.20
2023-05-17T04:25:00.953Z,13.30
2023-05-17T04:31:01.443Z,12.53
2023-05-17T04:33:43.307Z,13.43
2023-05-17T04:36:22.227Z,13.63
2023-05-17T04:39:50.692Z,14.60
2023-05-17T04:45:38.228Z,13.60
2023-05-17T04:48:25.532Z,14.47
2023-05-17T04:50:56.543Z,14.00
2023-05-17T04:53:45.476Z,14.87
2023-05-17T04:56:38.028Z,16.93
2023-05-17T04:59:09.411Z,20.13
2023-05-17T05:01:48.554Z,19.77
2023-05-17T05:04:41.540Z,20.47
2023-05-17T05:07:15.847Z,19.67
2023-05-17T05:09:51.868Z,20.07
2023-05-17T05:12:33.272Z,20.07
2023-05-17T05:15:23.648Z,18.10
2023-05-17T05:18:12.822Z,17.97
2023-05-17T05:24:19.636Z,16.63
2023-05-17T05:27:23.200Z,17.33
2023-05-17T05:30:02.615Z,23.57
2023-05-17T05:32:45.641Z,15.57
2023-05-17T05:35:17.215Z,15.40
2023-05-17T05:38:06.976Z,14.03
2023-05-17T05:46:06.520Z,12.17
2023-05-17T05:48:34.443Z,11.80
2023-05-17T05:51:03.522Z,12.10
2023-05-17T05:56:09.771Z,10.73
2023-05-17T05:58:38.047Z,10.33
2023-05-17T06:01:06.601Z,10.60
2023-05-17T06:03:34.463Z,9.40
2023-05-17T06:06:02.513Z,7.73
2023-05-17T06:08:30.385Z,7.20
2023-05-17T06:10:59.358Z,6.50
2023-05-17T06:13:28.555Z,6.70
2023-05-17T06:15:56.583Z,6.57
2023-05-17T06:18:24.754Z,5.23
2023-05-17T06:20:55.878Z,4.30
2023-05-17T06:23:24.368Z,5.10
2023-05-17T06:25:53.439Z,4.60
2023-05-17T06:28:21.480Z,4.97
2023-05-17T06:30:50.823Z,4.27
2023-05-17T06:33:19.565Z,3.47
2023-05-17T06:35:56.011Z,4.40
2023-05-17T06:38:25.569Z,4.03
2023-05-17T06:40:54.213Z,3.43
2023-05-17T06:43:22.040Z,4.40
2023-05-17T06:45:51.460Z,3.23
2023-05-17T06:48:19.315Z,7.33
2023-05-17T06:50:47.202Z,3.37
2023-05-17T06:53:14.997Z,3.07
2023-05-17T06:55:49.458Z,2.83
2023-05-17T06:58:20.848Z,2.60
2023-05-17T07:00:48.937Z,2.75
2023-05-17T07:03:18.197Z,2.70
2023-05-17T07:05:46.335Z,2.60
2023-05-17T07:08:15.479Z,3.73
2023-05-17T07:10:43.254Z,2.67
2023-05-17T07:13:11.165Z,3.13
2023-05-17T07:15:38.978Z,2.77
2023-05-17T07:18:06.934Z,2.87
2023-05-17T07:20:36.282Z,2.90
2023-05-17T07:23:04.129Z,2.60
2023-05-17T07:25:32.503Z,2.60
2023-05-17T07:28:00.288Z,2.73
2023-05-17T07:30:28.113Z,3.30
2023-05-17T07:32:56.212Z,2.50
2023-05-17T07:35:24.477Z,2.38
2023-05-17T07:37:57.992Z,2.30
2023-05-17T07:40:26.033Z,2.25
2023-05-17T07:42:55.091Z,2.80
2023-05-17T07:45:22.999Z,2.33
2023-05-17T07:47:51.552Z,2.47
2023-05-17T07:50:19.510Z,3.00
2023-05-17T07:52:48.315Z,2.60
2023-05-17T07:55:17.993Z,2.55
2023-05-17T07:57:47.401Z,2.70
2023-05-17T08:00:19.376Z,2.88
2023-05-17T08:02:47.480Z,2.70
2023-05-17T08:05:28.568Z,3.60
2023-05-17T08:08:00.125Z,3.05
2023-05-17T08:10:29.658Z,3.38
2023-05-17T08:12:57.769Z,2.95
2023-05-17T08:16:05.045Z,3.97
2023-05-17T08:18:38.104Z,3.90
2023-05-17T08:21:06.704Z,3.77
2023-05-17T08:23:37.625Z,3.57
2023-05-17T08:26:07.679Z,3.87
2023-05-17T08:28:35.996Z,3.13
2023-05-17T08:31:05.417Z,3.67
2023-05-17T08:33:33.734Z,3.72
2023-05-17T08:36:53.818Z,3.20
2023-05-17T08:39:24.987Z,3.13
2023-05-17T08:41:59.776Z,3.50
2023-05-17T08:44:28.660Z,3.10
2023-05-17T08:46:57.191Z,3.45
2023-05-17T08:49:26.120Z,3.35
2023-05-17T08:51:55.635Z,2.70
2023-05-17T08:54:23.664Z,3.05
2023-05-17T08:56:52.519Z,2.63
2023-05-17T08:59:26.920Z,2.88
2023-05-17T09:01:56.160Z,2.90
2023-05-17T09:04:25.107Z,3.00
2023-05-17T09:06:55.809Z,2.63
2023-05-17T09:09:23.695Z,2.30
2023-05-17T09:11:51.607Z,2.92
2023-05-17T09:14:21.059Z,2.60
2023-05-17T09:16:49.268Z,3.00
2023-05-17T09:19:18.513Z,3.05
2023-05-17T09:21:49.423Z,2.72
2023-05-17T09:24:33.740Z,2.45
2023-05-17T09:27:06.516Z,2.30
2023-05-17T09:29:51.760Z,2.90
2023-05-17T09:32:20.698Z,2.28
2023-05-17T09:34:49.144Z,2.70
2023-05-17T09:37:18.227Z,2.10
2023-05-17T09:39:47.361Z,2.92
2023-05-17T09:42:15.336Z,2.45
2023-05-17T09:44:53.333Z,2.28
2023-05-17T09:47:27.972Z,2.13
2023-05-17T09:49:57.679Z,2.60
2023-05-17T09:52:30.016Z,2.80
2023-05-17T09:54:59.953Z,2.30
2023-05-17T09:58:08.404Z,2.80
2023-05-17T10:00:38.274Z,2.60
2023-05-17T10:03:06.277Z,2.80
2023-05-17T10:05:37.065Z,2.63
2023-05-17T10:08:06.147Z,2.63
2023-05-17T10:10:34.733Z,2.70
2023-05-17T10:13:11.770Z,3.10
2023-05-17T10:15:41.470Z,2.63
2023-05-17T10:18:09.535Z,2.35
2023-05-17T10:20:38.218Z,2.40
2023-05-17T10:23:06.921Z,2.92
2023-05-17T10:25:35.010Z,2.30
2023-05-17T10:28:06.694Z,2.38
2023-05-17T10:30:38.607Z,2.78
2023-05-17T10:33:07.933Z,2.75
2023-05-17T10:35:36.155Z,2.42
2023-05-17T10:38:03.947Z,2.70
2023-05-17T10:40:32.836Z,2.30
2023-05-17T10:43:01.320Z,2.70
2023-05-17T10:45:30.727Z,2.95
2023-05-17T10:48:00.463Z,2.65
2023-05-17T10:50:32.383Z,2.65
2023-05-17T10:53:00.849Z,2.08
2023-05-17T10:55:38.534Z,2.70
2023-05-17T10:58:20.136Z,3.17
2023-05-17T11:00:49.668Z,2.72
2023-05-17T11:03:18.877Z,2.58
2023-05-17T11:06:23.394Z,2.47
2023-05-17T11:09:08.033Z,2.90
2023-05-17T11:11:36.561Z,2.60
2023-05-17T11:14:05.417Z,3.33
2023-05-17T11:16:36.468Z,2.70
2023-05-17T11:19:08.411Z,2.65
2023-05-17T11:21:37.693Z,2.90
2023-05-17T11:24:06.833Z,3.13
2023-05-17T11:26:35.440Z,2.40
2023-05-17T11:29:07.741Z,3.50
2023-05-17T11:31:36.491Z,3.00
2023-05-17T11:34:04.620Z,2.60
2023-05-17T11:36:32.599Z,3.00
2023-05-17T11:39:17.321Z,2.63
2023-05-17T11:41:49.841Z,2.75
2023-05-17T11:44:19.320Z,2.95
2023-05-17T11:46:52.479Z,2.67
2023-05-17T11:49:34.271Z,2.72
2023-05-17T11:52:03.278Z,2.92
2023-05-17T11:54:32.519Z,2.88
2023-05-17T11:57:00.652Z,2.53
2023-05-17T11:59:28.435Z,2.35
2023-05-17T12:01:56.800Z,2.75
2023-05-17T12:04:25.685Z,2.67
2023-05-17T12:06:53.783Z,2.83
2023-05-17T12:09:21.845Z,2.80
2023-05-17T12:11:51.098Z,2.75
2023-05-17T12:14:20.266Z,2.55
2023-05-17T12:16:49.373Z,2.40
2023-05-17T12:19:20.624Z,2.50
2023-05-17T12:21:48.684Z,2.97
2023-05-17T12:24:16.992Z,3.55
2023-05-17T12:26:46.420Z,2.65
2023-05-17T12:29:19.827Z,2.97
2023-05-17T12:31:49.508Z,3.38
2023-05-17T12:34:18.212Z,2.97
2023-05-17T12:36:46.839Z,2.80
2023-05-17T12:39:15.441Z,3.15
2023-05-17T12:41:43.695Z,2.95
2023-05-17T12:44:15.797Z,2.83
2023-05-17T12:46:45.574Z,2.90
2023-05-17T12:49:13.642Z,2.90
2023-05-17T12:51:42.363Z,2.80
2023-05-17T12:54:10.313Z,2.60
2023-05-17T12:56:38.548Z,2.83
2023-05-17T12:59:07.331Z,2.88
2023-05-17T13:01:36.100Z,2.50
2023-05-17T13:04:06.148Z,2.33
2023-05-17T13:06:45.857Z,3.38
2023-05-17T13:09:14.303Z,2.55
2023-05-17T13:11:42.685Z,3.65
2023-05-17T13:14:11.152Z,3.40
2023-05-17T13:16:39.487Z,3.25
2023-05-17T13:19:14.741Z,2.63
2023-05-17T13:21:43.073Z,2.80
2023-05-17T13:24:11.287Z,3.00
2023-05-17T13:26:40.093Z,3.40
2023-05-17T13:29:07.946Z,3.35
2023-05-17T13:31:35.897Z,2.88
2023-05-17T13:34:03.957Z,2.90
2023-05-17T13:36:33.255Z,3.17
2023-05-17T13:39:01.937Z,2.60
2023-05-17T13:41:29.861Z,2.97
2023-05-17T13:43:57.742Z,2.95
2023-05-17T13:46:25.511Z,2.70
2023-05-17T13:48:56.794Z,2.97
2023-05-17T13:51:25.447Z,2.97
2023-05-17T13:53:55.045Z,3.30
2023-05-17T13:56:23.376Z,2.92
2023-05-17T13:58:51.213Z,2.90
2023-05-17T14:01:19.266Z,2.90
2023-05-17T14:03:47.532Z,2.77
2023-05-17T14:06:15.521Z,2.47
2023-05-17T14:08:45.472Z,3.13
2023-05-17T14:11:14.768Z,2.80
2023-05-17T14:13:42.833Z,2.70
2023-05-17T14:16:10.722Z,3.10
2023-05-17T14:18:41.098Z,2.97
2023-05-17T14:21:09.124Z,2.30
2023-05-17T14:23:36.874Z,2.60
2023-05-17T14:26:07.516Z,2.73
2023-05-17T14:28:38.236Z,2.50
2023-05-17T14:31:07.003Z,3.60
2023-05-17T14:33:34.920Z,2.40
2023-05-17T14:36:03.910Z,2.70
2023-05-17T14:38:31.836Z,2.73
2023-05-17T14:41:00.678Z,2.40
2023-05-17T14:43:28.995Z,2.77
2023-05-17T14:46:01.356Z,2.70
2023-05-17T14:48:29.263Z,2.67
2023-05-17T14:50:57.145Z,3.40
2023-05-17T14:53:29.044Z,2.80
2023-05-17T14:55:58.829Z,2.53
2023-05-17T14:58:27.205Z,2.97
2023-05-17T15:01:05.123Z,2.47
2023-05-17T15:03:35.553Z,2.30
2023-05-17T15:06:06.478Z,3.00
2023-05-17T15:08:37.045Z,2.10
2023-05-17T15:11:05.323Z,2.77
2023-05-17T15:13:34.239Z,2.93
2023-05-17T15:16:03.661Z,3.87
2023-05-17T15:18:54.911Z,2.80
2023-05-17T15:26:48.822Z,2.50
2023-05-17T15:29:16.754Z,2.83
2023-05-17T15:31:44.684Z,2.33
2023-05-17T15:34:14.524Z,2.30
2023-05-17T15:36:42.563Z,2.60
2023-05-17T15:39:11.039Z,2.70
2023-05-17T15:41:39.794Z,1.70
2023-05-17T15:44:09.009Z,3.30
2023-05-17T15:46:41.665Z,4.33
2023-05-17T15:49:09.598Z,2.30
2023-05-17T15:51:38.814Z,2.50
2023-05-17T15:54:07.182Z,2.50
2023-05-17T15:56:38.390Z,2.90
2023-05-17T15:59:07.761Z,3.57
2023-05-17T16:01:35.815Z,2.53
2023-05-17T16:04:04.811Z,4.50
2023-05-17T16:06:36.147Z,2.30
2023-05-17T16:09:05.669Z,3.30
2023-05-17T16:11:34.098Z,2.20
2023-05-17T16:14:01.869Z,2.63
2023-05-17T16:16:29.778Z,2.00
2023-05-17T16:18:58.555Z,3.10
2023-05-17T16:21:26.772Z,2.40
2023-05-17T16:23:54.805Z,2.63
2023-05-17T16:26:26.555Z,2.00
2023-05-17T16:28:56.800Z,2.47
2023-05-17T16:31:24.901Z,2.40
2023-05-17T16:33:52.891Z,3.13
2023-05-17T16:36:22.567Z,4.73
2023-05-17T16:38:51.480Z,6.83
2023-05-17T16:41:19.914Z,2.83
2023-05-17T16:43:48.988Z,3.47
2023-05-17T16:46:18.995Z,2.70
2023-05-17T16:48:46.840Z,3.03
2023-05-17T16:51:14.861Z,3.03
2023-05-17T16:53:42.913Z,3.20
2023-05-17T16:56:10.739Z,3.63
2023-05-17T16:58:42.521Z,5.83
2023-05-17T17:01:19.312Z,2.70
2023-05-17T17:03:52.457Z,3.00
2023-05-17T17:06:28.096Z,3.00
2023-05-17T17:08:57.138Z,2.63
2023-05-17T17:11:26.410Z,2.83
2023-05-17T17:13:55.876Z,2.63
2023-05-17T17:16:28.973Z,2.37
2023-05-17T17:18:57.048Z,3.00
2023-05-17T17:21:40.195Z,2.87
2023-05-17T17:24:08.893Z,2.87
2023-05-17T17:26:39.319Z,5.60
2023-05-17T17:29:08.305Z,4.17
2023-05-17T17:31:37.924Z,3.87
2023-05-17T17:34:06.132Z,2.73
2023-05-17T17:36:33.933Z,2.90
2023-05-17T17:39:01.865Z,2.77
2023-05-17T17:41:30.009Z,3.00
2023-05-17T17:43:59.413Z,3.03
2023-05-17T17:46:30.703Z,3.80
2023-05-17T17:49:01.011Z,2.90
2023-05-17T17:51:29.095Z,2.83
2023-05-17T17:54:07.771Z,3.17
2023-05-17T17:56:35.839Z,2.67
2023-05-17T17:59:04.141Z,6.83
2023-05-17T18:01:33.956Z,3.70
2023-05-17T18:04:04.913Z,6.37
2023-05-17T18:06:33.659Z,7.60
2023-05-17T18:09:01.789Z,3.17
2023-05-17T18:11:30.043Z,2.53
2023-05-17T18:13:58.205Z,2.60
2023-05-17T18:16:26.411Z,2.90
2023-05-17T18:18:54.491Z,2.50
2023-05-17T18:21:24.418Z,2.80
2023-05-17T18:23:52.543Z,2.97
2023-05-17T18:26:21.348Z,2.43
2023-05-17T18:28:49.233Z,2.67
2023-05-17T18:31:18.445Z,2.57
2023-05-17T18:33:46.736Z,2.77
2023-05-17T18:36:14.984Z,3.20
2023-05-17T18:38:44.587Z,3.80
2023-05-17T18:41:12.564Z,6.97
2023-05-17T18:43:40.791Z,2.77
2023-05-17T18:46:08.678Z,2.87
2023-05-17T18:48:37.090Z,2.80
2023-05-17T18:51:05.345Z,3.00
2023-05-17T18:53:33.326Z,3.40
2023-05-17T18:56:03.058Z,2.63
2023-05-17T18:58:35.330Z,2.53
2023-05-17T19:01:03.522Z,2.43
2023-05-17T19:03:32.713Z,2.70
2023-05-17T19:06:00.958Z,2.83
2023-05-17T19:08:29.062Z,2.57
2023-05-17T19:10:57.812Z,2.30
2023-05-17T19:13:28.842Z,3.10
2023-05-17T19:15:56.911Z,2.87
2023-05-17T19:18:26.011Z,3.17
2023-05-17T19:20:53.850Z,2.63
2023-05-17T19:23:24.660Z,3.07
2023-05-17T19:25:53.754Z,2.47
2023-05-17T19:28:26.357Z,3.13
2023-05-17T19:30:55.771Z,2.90
2023-05-17T19:33:26.493Z,2.67
2023-05-17T19:35:54.728Z,2.60
2023-05-17T19:38:23.333Z,3.47
2023-05-17T19:40:51.414Z,2.50
2023-05-17T19:43:20.311Z,2.53
2023-05-17T19:45:48.757Z,1.93
2023-05-17T19:48:23.404Z,3.40
2023-05-17T19:50:53.940Z,3.07
2023-05-17T19:53:24.755Z,2.83
2023-05-17T19:55:52.902Z,2.57
2023-05-17T19:58:32.800Z,2.83
2023-05-17T20:01:10.412Z,2.77
2023-05-17T20:06:36.632Z,2.70
2023-05-17T20:09:05.542Z,3.10
2023-05-17T20:11:33.680Z,2.60
2023-05-17T20:14:08.238Z,2.30
2023-05-17T20:16:36.416Z,4.47
2023-05-17T20:19:08.237Z,2.67
2023-05-17T20:21:36.442Z,2.73
2023-05-17T20:24:06.633Z,2.80
2023-05-17T20:26:46.771Z,2.77
2023-05-17T20:29:14.906Z,2.50
2023-05-17T20:31:42.860Z,2.60
2023-05-17T20:34:12.364Z,2.73
2023-05-17T20:37:13.004Z,3.13
2023-05-17T20:39:40.930Z,3.00
2023-05-17T20:42:18.235Z,3.60
2023-05-17T20:44:46.217Z,2.90
2023-05-17T20:47:14.366Z,2.90
2023-05-17T20:49:43.846Z,3.00
2023-05-17T20:52:13.094Z,3.07
2023-05-17T20:54:41.778Z,2.73
2023-05-17T20:57:10.004Z,3.77
2023-05-17T20:59:38.205Z,2.87
2023-05-17T21:02:07.017Z,3.00
2023-05-17T21:04:34.963Z,3.90
2023-05-17T21:07:04.242Z,3.87
2023-05-17T21:09:32.756Z,3.43
2023-05-17T21:12:00.875Z,3.50
2023-05-17T21:14:29.526Z,3.60
2023-05-17T21:17:02.052Z,3.77
2023-05-17T21:19:30.687Z,3.03
2023-05-17T21:21:58.729Z,2.87
2023-05-17T21:24:28.648Z,3.30
2023-05-17T21:26:56.597Z,3.70
2023-05-17T21:29:24.634Z,3.37
2023-05-17T21:31:53.057Z,3.43
2023-05-17T21:34:23.471Z,3.60
2023-05-17T21:36:51.225Z,3.40
2023-05-17T21:39:20.279Z,2.97
2023-05-17T21:41:51.528Z,3.13
2023-05-17T21:44:20.609Z,3.13
2023-05-17T21:46:48.909Z,3.03
2023-05-17T21:49:17.456Z,4.13
2023-05-17T21:51:45.959Z,2.93
2023-05-17T21:54:16.764Z,3.47
2023-05-17T21:56:44.596Z,3.23
2023-05-17T21:59:14.461Z,2.80
2023-05-17T22:01:42.891Z,3.50
2023-05-17T22:04:10.785Z,3.10
2023-05-17T22:06:38.743Z,3.20
2023-05-17T22:09:07.392Z,3.50
2023-05-17T22:11:38.639Z,3.27
2023-05-17T22:14:07.918Z,3.17
2023-05-17T22:16:37.556Z,2.93
2023-05-17T22:19:06.079Z,3.37
2023-05-17T22:21:33.886Z,3.27
2023-05-17T22:24:02.008Z,2.93
2023-05-17T22:26:29.808Z,3.63
2023-05-17T22:29:00.603Z,2.60
2023-05-17T22:31:29.044Z,3.00
2023-05-17T22:33:58.509Z,10.93
2023-05-17T22:36:34.868Z,4.17
2023-05-17T22:39:02.638Z,3.43
2023-05-17T22:41:30.794Z,3.00
2023-05-17T22:43:58.891Z,3.00
2023-05-17T22:46:36.453Z,3.37
2023-05-17T22:49:07.810Z,3.13
2023-05-17T22:51:36.993Z,3.13
